sensor_id;sensor_type;location;lat;lon;timestamp;P1;durP1;ratioP1;P2;durP2;ratioP2
71464;SDS011;59274;49.874;9.154;2024-01-25T00:00:16;14.63;;;2.30;;
71464;SDS011;59274;49.874;9.154;2024-01-25T00:02:42;14.48;;;2.42;;
71464;SDS011;59274;49.874;9.154;2024-01-25T00:05:08;17.93;;;2.47;;
71464;SDS011;59274;49.874;9.154;2024-01-25T00:07:33;18.47;;;3.30;;
71464;SDS011;59274;49.874;9.154;2024-01-25T00:09:59;21.57;;;2.40;;
71464;SDS011;59274;49.874;9.154;2024-01-25T00:12:24;15.13;;;2.20;;
71464;SDS011;59274;49.874;9.154;2024-01-25T00:14:50;17.60;;;2.77;;
71464;SDS011;59274;49.874;9.154;2024-01-25T00:17:17;17.33;;;2.53;;
71464;SDS011;59274;49.874;9.154;2024-01-25T00:19:42;22.63;;;3.37;;
71464;SDS011;59274;49.874;9.154;2024-01-25T00:22:08;16.35;;;2.58;;
71464;SDS011;59274;49.874;9.154;2024-01-25T00:24:34;20.13;;;2.30;;
71464;SDS011;59274;49.874;9.154;2024-01-25T00:26:59;16.88;;;3.22;;
71464;SDS011;59274;49.874;9.154;2024-01-25T00:29:25;14.27;;;2.53;;
71464;SDS011;59274;49.874;9.154;2024-01-25T00:31:50;16.90;;;2.50;;
71464;SDS011;59274;49.874;9.154;2024-01-25T00:34:16;16.43;;;3.10;;
71464;SDS011;59274;49.874;9.154;2024-01-25T00:36:42;15.25;;;2.53;;
71464;SDS011;59274;49.874;9.154;2024-01-25T00:39:09;15.57;;;2.30;;
71464;SDS011;59274;49.874;9.154;2024-01-25T00:41:35;18.08;;;2.85;;
71464;SDS011;59274;49.874;9.154;2024-01-25T00:44:01;16.10;;;2.50;;
71464;SDS011;59274;49.874;9.154;2024-01-25T00:46:27;14.47;;;2.63;;
71464;SDS011;59274;49.874;9.154;2024-01-25T00:48:53;21.10;;;2.45;;
71464;SDS011;59274;49.874;9.154;2024-01-25T00:51:20;17.30;;;2.73;;
71464;SDS011;59274;49.874;9.154;2024-01-25T00:53:48;17.38;;;3.38;;
71464;SDS011;59274;49.874;9.154;2024-01-25T00:56:13;20.57;;;2.77;;
71464;SDS011;59274;49.874;9.154;2024-01-25T00:58:39;15.68;;;2.00;;
71464;SDS011;59274;49.874;9.154;2024-01-25T01:01:05;18.70;;;2.50;;
71464;SDS011;59274;49.874;9.154;2024-01-25T01:03:31;18.38;;;3.28;;
71464;SDS011;59274;49.874;9.154;2024-01-25T01:05:56;18.83;;;2.73;;
71464;SDS011;59274;49.874;9.154;2024-01-25T01:08:23;20.00;;;2.80;;
71464;SDS011;59274;49.874;9.154;2024-01-25T01:10:49;21.90;;;2.60;;
71464;SDS011;59274;49.874;9.154;2024-01-25T01:13:14;20.13;;;2.92;;
71464;SDS011;59274;49.874;9.154;2024-01-25T01:15:40;16.00;;;2.90;;
71464;SDS011;59274;49.874;9.154;2024-01-25T01:18:05;14.87;;;2.10;;
71464;SDS011;59274;49.874;9.154;2024-01-25T01:20:31;19.40;;;2.30;;
71464;SDS011;59274;49.874;9.154;2024-01-25T01:22:56;17.27;;;2.15;;
71464;SDS011;59274;49.874;9.154;2024-01-25T01:25:22;17.97;;;2.60;;
71464;SDS011;59274;49.874;9.154;2024-01-25T01:27:48;15.83;;;2.63;;
71464;SDS011;59274;49.874;9.154;2024-01-25T01:30:13;16.33;;;2.17;;
71464;SDS011;59274;49.874;9.154;2024-01-25T01:32:39;21.10;;;3.47;;
71464;SDS011;59274;49.874;9.154;2024-01-25T01:35:04;17.60;;;2.10;;
71464;SDS011;59274;49.874;9.154;2024-01-25T01:37:30;14.85;;;2.47;;
71464;SDS011;59274;49.874;9.154;2024-01-25T01:39:56;15.67;;;2.50;;
71464;SDS011;59274;49.874;9.154;2024-01-25T01:42:23;14.95;;;2.55;;
71464;SDS011;59274;49.874;9.154;2024-01-25T01:44:49;18.17;;;2.88;;
71464;SDS011;59274;49.874;9.154;2024-01-25T01:47:15;21.80;;;2.50;;
71464;SDS011;59274;49.874;9.154;2024-01-25T01:49:41;14.90;;;2.08;;
71464;SDS011;59274;49.874;9.154;2024-01-25T01:52:07;15.88;;;2.33;;
71464;SDS011;59274;49.874;9.154;2024-01-25T01:54:35;16.90;;;2.57;;
71464;SDS011;59274;49.874;9.154;2024-01-25T01:57:01;14.50;;;2.80;;
71464;SDS011;59274;49.874;9.154;2024-01-25T01:59:27;15.35;;;2.30;;
71464;SDS011;59274;49.874;9.154;2024-01-25T02:01:54;20.30;;;2.95;;
71464;SDS011;59274;49.874;9.154;2024-01-25T02:04:19;18.67;;;3.10;;
71464;SDS011;59274;49.874;9.154;2024-01-25T02:06:45;18.37;;;2.50;;
71464;SDS011;59274;49.874;9.154;2024-01-25T02:09:11;18.83;;;2.67;;
71464;SDS011;59274;49.874;9.154;2024-01-25T02:11:38;12.00;;;2.07;;
71464;SDS011;59274;49.874;9.154;2024-01-25T02:14:03;16.40;;;2.72;;
71464;SDS011;59274;49.874;9.154;2024-01-25T02:16:29;16.37;;;2.73;;
71464;SDS011;59274;49.874;9.154;2024-01-25T02:18:54;14.63;;;2.10;;
71464;SDS011;59274;49.874;9.154;2024-01-25T02:21:22;15.45;;;2.63;;
71464;SDS011;59274;49.874;9.154;2024-01-25T02:23:48;21.37;;;2.73;;
71464;SDS011;59274;49.874;9.154;2024-01-25T02:26:13;11.40;;;2.05;;
71464;SDS011;59274;49.874;9.154;2024-01-25T02:28:39;14.83;;;2.47;;
71464;SDS011;59274;49.874;9.154;2024-01-25T02:31:09;18.42;;;2.75;;
71464;SDS011;59274;49.874;9.154;2024-01-25T02:33:35;13.00;;;2.50;;
71464;SDS011;59274;49.874;9.154;2024-01-25T02:36:00;20.63;;;2.43;;
71464;SDS011;59274;49.874;9.154;2024-01-25T02:38:25;15.73;;;2.70;;
71464;SDS011;59274;49.874;9.154;2024-01-25T02:40:51;22.65;;;2.53;;
71464;SDS011;59274;49.874;9.154;2024-01-25T02:43:18;18.77;;;2.83;;
71464;SDS011;59274;49.874;9.154;2024-01-25T02:45:45;12.63;;;2.42;;
71464;SDS011;59274;49.874;9.154;2024-01-25T02:48:10;20.97;;;2.80;;
71464;SDS011;59274;49.874;9.154;2024-01-25T02:50:38;18.08;;;3.28;;
71464;SDS011;59274;49.874;9.154;2024-01-25T02:53:03;14.80;;;2.60;;
71464;SDS011;59274;49.874;9.154;2024-01-25T02:55:30;20.10;;;2.70;;
71464;SDS011;59274;49.874;9.154;2024-01-25T02:57:55;13.80;;;3.23;;
71464;SDS011;59274;49.874;9.154;2024-01-25T03:00:21;28.52;;;3.10;;
71464;SDS011;59274;49.874;9.154;2024-01-25T03:02:46;15.67;;;3.00;;
71464;SDS011;59274;49.874;9.154;2024-01-25T03:05:12;18.90;;;3.05;;
71464;SDS011;59274;49.874;9.154;2024-01-25T03:07:37;13.48;;;2.45;;
71464;SDS011;59274;49.874;9.154;2024-01-25T03:10:03;13.37;;;2.10;;
71464;SDS011;59274;49.874;9.154;2024-01-25T03:12:28;16.70;;;2.70;;
71464;SDS011;59274;49.874;9.154;2024-01-25T03:14:54;15.32;;;2.55;;
71464;SDS011;59274;49.874;9.154;2024-01-25T03:17:19;23.13;;;3.10;;
71464;SDS011;59274;49.874;9.154;2024-01-25T03:19:45;20.20;;;2.70;;
71464;SDS011;59274;49.874;9.154;2024-01-25T03:22:13;17.17;;;2.20;;
71464;SDS011;59274;49.874;9.154;2024-01-25T03:24:38;16.80;;;2.30;;
71464;SDS011;59274;49.874;9.154;2024-01-25T03:27:04;18.63;;;2.90;;
71464;SDS011;59274;49.874;9.154;2024-01-25T03:29:29;18.43;;;2.53;;
71464;SDS011;59274;49.874;9.154;2024-01-25T03:31:56;16.30;;;2.60;;
71464;SDS011;59274;49.874;9.154;2024-01-25T03:34:22;19.85;;;2.72;;
71464;SDS011;59274;49.874;9.154;2024-01-25T03:36:47;16.80;;;3.03;;
71464;SDS011;59274;49.874;9.154;2024-01-25T03:39:12;16.60;;;2.83;;
71464;SDS011;59274;49.874;9.154;2024-01-25T03:41:38;15.50;;;2.40;;
71464;SDS011;59274;49.874;9.154;2024-01-25T03:44:03;17.63;;;3.30;;
71464;SDS011;59274;49.874;9.154;2024-01-25T03:46:29;15.40;;;2.47;;
71464;SDS011;59274;49.874;9.154;2024-01-25T03:48:54;12.33;;;3.53;;
71464;SDS011;59274;49.874;9.154;2024-01-25T03:51:20;16.57;;;2.33;;
71464;SDS011;59274;49.874;9.154;2024-01-25T03:53:45;17.67;;;2.87;;
71464;SDS011;59274;49.874;9.154;2024-01-25T03:56:11;20.42;;;2.75;;
71464;SDS011;59274;49.874;9.154;2024-01-25T03:58:38;15.93;;;2.73;;
71464;SDS011;59274;49.874;9.154;2024-01-25T04:01:03;22.30;;;2.90;;
71464;SDS011;59274;49.874;9.154;2024-01-25T04:03:29;18.70;;;3.23;;
71464;SDS011;59274;49.874;9.154;2024-01-25T04:05:55;18.35;;;2.45;;
71464;SDS011;59274;49.874;9.154;2024-01-25T04:08:20;13.87;;;2.40;;
71464;SDS011;59274;49.874;9.154;2024-01-25T04:10:45;17.73;;;3.10;;
71464;SDS011;59274;49.874;9.154;2024-01-25T04:13:11;21.60;;;2.70;;
71464;SDS011;59274;49.874;9.154;2024-01-25T04:15:36;18.03;;;2.80;;
71464;SDS011;59274;49.874;9.154;2024-01-25T04:18:01;19.65;;;2.75;;
71464;SDS011;59274;49.874;9.154;2024-01-25T04:20:27;18.40;;;2.43;;
71464;SDS011;59274;49.874;9.154;2024-01-25T04:22:52;18.80;;;2.93;;
71464;SDS011;59274;49.874;9.154;2024-01-25T04:25:18;16.33;;;2.63;;
71464;SDS011;59274;49.874;9.154;2024-01-25T04:27:43;16.40;;;2.40;;
71464;SDS011;59274;49.874;9.154;2024-01-25T04:30:09;14.57;;;2.80;;
71464;SDS011;59274;49.874;9.154;2024-01-25T04:32:35;20.03;;;2.63;;
71464;SDS011;59274;49.874;9.154;2024-01-25T04:35:01;11.85;;;2.20;;
71464;SDS011;59274;49.874;9.154;2024-01-25T04:37:26;12.67;;;2.57;;
71464;SDS011;59274;49.874;9.154;2024-01-25T04:39:52;16.40;;;2.73;;
71464;SDS011;59274;49.874;9.154;2024-01-25T04:42:17;18.83;;;2.70;;
71464;SDS011;59274;49.874;9.154;2024-01-25T04:44:43;13.30;;;2.27;;
71464;SDS011;59274;49.874;9.154;2024-01-25T04:47:08;17.02;;;2.95;;
71464;SDS011;59274;49.874;9.154;2024-01-25T04:49:34;16.43;;;2.53;;
71464;SDS011;59274;49.874;9.154;2024-01-25T04:52:00;22.88;;;2.83;;
71464;SDS011;59274;49.874;9.154;2024-01-25T04:54:25;19.23;;;2.50;;
71464;SDS011;59274;49.874;9.154;2024-01-25T04:56:51;19.20;;;3.07;;
71464;SDS011;59274;49.874;9.154;2024-01-25T04:59:16;18.83;;;2.43;;
71464;SDS011;59274;49.874;9.154;2024-01-25T05:01:41;16.13;;;2.30;;
71464;SDS011;59274;49.874;9.154;2024-01-25T05:04:10;22.75;;;2.97;;
71464;SDS011;59274;49.874;9.154;2024-01-25T05:06:35;14.50;;;2.20;;
71464;SDS011;59274;49.874;9.154;2024-01-25T05:09:01;14.57;;;2.92;;
71464;SDS011;59274;49.874;9.154;2024-01-25T05:11:27;16.48;;;3.30;;
71464;SDS011;59274;49.874;9.154;2024-01-25T05:13:52;17.10;;;2.72;;
71464;SDS011;59274;49.874;9.154;2024-01-25T05:16:18;19.43;;;3.23;;
71464;SDS011;59274;49.874;9.154;2024-01-25T05:18:43;19.90;;;3.27;;
71464;SDS011;59274;49.874;9.154;2024-01-25T05:21:08;19.30;;;3.20;;
71464;SDS011;59274;49.874;9.154;2024-01-25T05:23:34;27.63;;;4.63;;
71464;SDS011;59274;49.874;9.154;2024-01-25T05:26:02;27.25;;;4.75;;
71464;SDS011;59274;49.874;9.154;2024-01-25T05:28:27;22.73;;;4.67;;
71464;SDS011;59274;49.874;9.154;2024-01-25T05:30:53;23.00;;;3.58;;
71464;SDS011;59274;49.874;9.154;2024-01-25T05:33:18;23.67;;;6.25;;
71464;SDS011;59274;49.874;9.154;2024-01-25T05:35:44;26.43;;;6.17;;
71464;SDS011;59274;49.874;9.154;2024-01-25T05:38:09;27.87;;;6.77;;
71464;SDS011;59274;49.874;9.154;2024-01-25T05:40:34;20.47;;;3.80;;
71464;SDS011;59274;49.874;9.154;2024-01-25T05:43:00;14.43;;;2.50;;
71464;SDS011;59274;49.874;9.154;2024-01-25T05:45:25;19.45;;;2.78;;
71464;SDS011;59274;49.874;9.154;2024-01-25T05:47:51;14.07;;;2.50;;
71464;SDS011;59274;49.874;9.154;2024-01-25T05:50:16;17.10;;;2.87;;
71464;SDS011;59274;49.874;9.154;2024-01-25T05:52:42;21.45;;;3.00;;
71464;SDS011;59274;49.874;9.154;2024-01-25T05:55:08;18.57;;;2.67;;
71464;SDS011;59274;49.874;9.154;2024-01-25T05:57:34;19.17;;;2.58;;
71464;SDS011;59274;49.874;9.154;2024-01-25T06:00:00;15.53;;;2.63;;
71464;SDS011;59274;49.874;9.154;2024-01-25T06:02:26;20.08;;;2.65;;
71464;SDS011;59274;49.874;9.154;2024-01-25T06:04:51;22.60;;;3.40;;
71464;SDS011;59274;49.874;9.154;2024-01-25T06:07:17;23.97;;;3.53;;
71464;SDS011;59274;49.874;9.154;2024-01-25T06:09:42;17.47;;;3.20;;
71464;SDS011;59274;49.874;9.154;2024-01-25T06:12:07;17.40;;;2.80;;
71464;SDS011;59274;49.874;9.154;2024-01-25T06:14:33;12.90;;;2.42;;
71464;SDS011;59274;49.874;9.154;2024-01-25T06:16:58;16.67;;;2.67;;
71464;SDS011;59274;49.874;9.154;2024-01-25T06:19:24;22.83;;;2.93;;
71464;SDS011;59274;49.874;9.154;2024-01-25T06:21:49;21.67;;;3.10;;
71464;SDS011;59274;49.874;9.154;2024-01-25T06:24:15;23.20;;;2.88;;
71464;SDS011;59274;49.874;9.154;2024-01-25T06:26:40;14.90;;;3.03;;
71464;SDS011;59274;49.874;9.154;2024-01-25T06:29:06;15.17;;;2.77;;
71464;SDS011;59274;49.874;9.154;2024-01-25T06:31:31;20.60;;;3.17;;
71464;SDS011;59274;49.874;9.154;2024-01-25T06:33:57;16.60;;;2.60;;
71464;SDS011;59274;49.874;9.154;2024-01-25T06:36:22;19.07;;;2.60;;
71464;SDS011;59274;49.874;9.154;2024-01-25T06:38:48;25.07;;;3.20;;
71464;SDS011;59274;49.874;9.154;2024-01-25T06:41:14;14.52;;;2.42;;
71464;SDS011;59274;49.874;9.154;2024-01-25T06:43:43;17.07;;;2.90;;
71464;SDS011;59274;49.874;9.154;2024-01-25T06:46:08;16.02;;;2.70;;
71464;SDS011;59274;49.874;9.154;2024-01-25T06:48:34;17.00;;;2.93;;
71464;SDS011;59274;49.874;9.154;2024-01-25T06:50:59;18.88;;;2.92;;
71464;SDS011;59274;49.874;9.154;2024-01-25T06:53:28;23.80;;;2.92;;
71464;SDS011;59274;49.874;9.154;2024-01-25T06:55:53;18.93;;;2.80;;
71464;SDS011;59274;49.874;9.154;2024-01-25T06:58:19;19.77;;;2.72;;
71464;SDS011;59274;49.874;9.154;2024-01-25T07:00:44;17.30;;;2.97;;
71464;SDS011;59274;49.874;9.154;2024-01-25T07:03:11;19.90;;;2.97;;
71464;SDS011;59274;49.874;9.154;2024-01-25T07:05:37;21.42;;;3.28;;
71464;SDS011;59274;49.874;9.154;2024-01-25T07:08:03;14.30;;;2.55;;
71464;SDS011;59274;49.874;9.154;2024-01-25T07:10:29;19.27;;;3.40;;
71464;SDS011;59274;49.874;9.154;2024-01-25T07:12:54;18.10;;;3.00;;
71464;SDS011;59274;49.874;9.154;2024-01-25T07:15:20;22.90;;;3.13;;
71464;SDS011;59274;49.874;9.154;2024-01-25T07:17:46;17.70;;;3.07;;
71464;SDS011;59274;49.874;9.154;2024-01-25T07:20:12;20.40;;;2.63;;
71464;SDS011;59274;49.874;9.154;2024-01-25T07:22:37;16.87;;;2.47;;
71464;SDS011;59274;49.874;9.154;2024-01-25T07:25:03;19.25;;;2.95;;
71464;SDS011;59274;49.874;9.154;2024-01-25T07:27:29;13.70;;;2.40;;
71464;SDS011;59274;49.874;9.154;2024-01-25T07:29:54;24.80;;;3.40;;
71464;SDS011;59274;49.874;9.154;2024-01-25T07:32:20;18.77;;;2.80;;
71464;SDS011;59274;49.874;9.154;2024-01-25T07:34:45;19.90;;;3.13;;
71464;SDS011;59274;49.874;9.154;2024-01-25T07:37:11;21.90;;;3.13;;
71464;SDS011;59274;49.874;9.154;2024-01-25T07:39:37;17.25;;;2.50;;
71464;SDS011;59274;49.874;9.154;2024-01-25T07:42:03;20.00;;;3.20;;
71464;SDS011;59274;49.874;9.154;2024-01-25T07:44:29;18.43;;;2.90;;
71464;SDS011;59274;49.874;9.154;2024-01-25T07:46:54;16.00;;;3.23;;
71464;SDS011;59274;49.874;9.154;2024-01-25T07:49:20;14.18;;;3.10;;
71464;SDS011;59274;49.874;9.154;2024-01-25T07:51:45;23.67;;;3.30;;
71464;SDS011;59274;49.874;9.154;2024-01-25T07:54:11;18.85;;;3.13;;
71464;SDS011;59274;49.874;9.154;2024-01-25T07:56:38;21.43;;;3.57;;
71464;SDS011;59274;49.874;9.154;2024-01-25T07:59:03;14.10;;;2.72;;
71464;SDS011;59274;49.874;9.154;2024-01-25T08:01:28;22.10;;;3.13;;
71464;SDS011;59274;49.874;9.154;2024-01-25T08:03:54;13.40;;;2.90;;
71464;SDS011;59274;49.874;9.154;2024-01-25T08:06:20;20.98;;;3.42;;
71464;SDS011;59274;49.874;9.154;2024-01-25T08:08:46;20.07;;;3.00;;
71464;SDS011;59274;49.874;9.154;2024-01-25T08:11:14;16.93;;;2.50;;
71464;SDS011;59274;49.874;9.154;2024-01-25T08:13:43;18.67;;;2.45;;
71464;SDS011;59274;49.874;9.154;2024-01-25T08:16:09;20.77;;;3.43;;
71464;SDS011;59274;49.874;9.154;2024-01-25T08:18:36;22.00;;;3.42;;
71464;SDS011;59274;49.874;9.154;2024-01-25T08:21:01;18.70;;;2.77;;
71464;SDS011;59274;49.874;9.154;2024-01-25T08:23:27;18.85;;;3.00;;
71464;SDS011;59274;49.874;9.154;2024-01-25T08:25:52;19.03;;;3.23;;
71464;SDS011;59274;49.874;9.154;2024-01-25T08:28:18;21.80;;;3.30;;
71464;SDS011;59274;49.874;9.154;2024-01-25T08:30:44;17.58;;;2.53;;
71464;SDS011;59274;49.874;9.154;2024-01-25T08:33:10;21.73;;;2.80;;
71464;SDS011;59274;49.874;9.154;2024-01-25T08:35:35;16.83;;;2.80;;
71464;SDS011;59274;49.874;9.154;2024-01-25T08:38:01;18.07;;;3.20;;
71464;SDS011;59274;49.874;9.154;2024-01-25T08:40:26;18.17;;;3.07;;
71464;SDS011;59274;49.874;9.154;2024-01-25T08:42:51;16.63;;;3.07;;
71464;SDS011;59274;49.874;9.154;2024-01-25T08:45:17;27.73;;;3.30;;
71464;SDS011;59274;49.874;9.154;2024-01-25T08:47:44;18.10;;;3.83;;
71464;SDS011;59274;49.874;9.154;2024-01-25T08:50:10;18.60;;;3.73;;
71464;SDS011;59274;49.874;9.154;2024-01-25T08:52:36;17.25;;;3.05;;
71464;SDS011;59274;49.874;9.154;2024-01-25T08:55:05;23.42;;;3.78;;
71464;SDS011;59274;49.874;9.154;2024-01-25T08:57:31;20.00;;;3.08;;
71464;SDS011;59274;49.874;9.154;2024-01-25T08:59:56;20.97;;;3.63;;
71464;SDS011;59274;49.874;9.154;2024-01-25T09:02:23;20.60;;;3.90;;
71464;SDS011;59274;49.874;9.154;2024-01-25T09:04:52;16.38;;;3.80;;
71464;SDS011;59274;49.874;9.154;2024-01-25T09:07:21;25.00;;;4.00;;
71464;SDS011;59274;49.874;9.154;2024-01-25T09:09:47;22.23;;;3.45;;
71464;SDS011;59274;49.874;9.154;2024-01-25T09:12:13;19.38;;;3.55;;
71464;SDS011;59274;49.874;9.154;2024-01-25T09:14:39;16.80;;;3.87;;
71464;SDS011;59274;49.874;9.154;2024-01-25T09:17:05;25.73;;;4.43;;
71464;SDS011;59274;49.874;9.154;2024-01-25T09:19:31;23.10;;;4.40;;
71464;SDS011;59274;49.874;9.154;2024-01-25T09:21:56;18.77;;;4.85;;
71464;SDS011;59274;49.874;9.154;2024-01-25T09:24:25;22.52;;;3.92;;
71464;SDS011;59274;49.874;9.154;2024-01-25T09:26:50;22.77;;;4.00;;
71464;SDS011;59274;49.874;9.154;2024-01-25T09:29:16;18.23;;;3.37;;
71464;SDS011;59274;49.874;9.154;2024-01-25T09:31:41;20.35;;;2.97;;
71464;SDS011;59274;49.874;9.154;2024-01-25T09:34:06;21.57;;;3.10;;
71464;SDS011;59274;49.874;9.154;2024-01-25T09:36:32;22.60;;;5.27;;
71464;SDS011;59274;49.874;9.154;2024-01-25T09:38:57;20.60;;;3.73;;
71464;SDS011;59274;49.874;9.154;2024-01-25T09:41:23;25.08;;;5.70;;
71464;SDS011;59274;49.874;9.154;2024-01-25T09:43:49;24.63;;;4.40;;
71464;SDS011;59274;49.874;9.154;2024-01-25T09:46:14;17.83;;;4.20;;
71464;SDS011;59274;49.874;9.154;2024-01-25T09:48:41;20.92;;;4.03;;
71464;SDS011;59274;49.874;9.154;2024-01-25T09:51:09;23.15;;;3.55;;
71464;SDS011;59274;49.874;9.154;2024-01-25T09:53:36;26.70;;;4.78;;
71464;SDS011;59274;49.874;9.154;2024-01-25T09:56:04;13.67;;;3.23;;
71464;SDS011;59274;49.874;9.154;2024-01-25T09:58:39;22.45;;;3.78;;
71464;SDS011;59274;49.874;9.154;2024-01-25T10:01:10;18.50;;;3.90;;
71464;SDS011;59274;49.874;9.154;2024-01-25T10:03:37;19.88;;;2.80;;
71464;SDS011;59274;49.874;9.154;2024-01-25T10:06:07;14.60;;;3.60;;
71464;SDS011;59274;49.874;9.154;2024-01-25T10:08:32;15.80;;;2.90;;
71464;SDS011;59274;49.874;9.154;2024-01-25T10:10:57;20.37;;;3.27;;
71464;SDS011;59274;49.874;9.154;2024-01-25T10:13:23;15.77;;;3.23;;
71464;SDS011;59274;49.874;9.154;2024-01-25T10:15:48;20.20;;;3.03;;
71464;SDS011;59274;49.874;9.154;2024-01-25T10:18:14;15.52;;;3.05;;
71464;SDS011;59274;49.874;9.154;2024-01-25T10:20:42;16.83;;;3.40;;
71464;SDS011;59274;49.874;9.154;2024-01-25T10:23:07;25.92;;;4.03;;
71464;SDS011;59274;49.874;9.154;2024-01-25T10:25:34;19.20;;;3.53;;
71464;SDS011;59274;49.874;9.154;2024-01-25T10:28:01;16.77;;;3.50;;
71464;SDS011;59274;49.874;9.154;2024-01-25T10:30:33;18.63;;;2.95;;
71464;SDS011;59274;49.874;9.154;2024-01-25T10:33:00;19.52;;;3.00;;
71464;SDS011;59274;49.874;9.154;2024-01-25T10:35:27;24.20;;;3.45;;
71464;SDS011;59274;49.874;9.154;2024-01-25T10:37:53;18.27;;;3.10;;
71464;SDS011;59274;49.874;9.154;2024-01-25T10:40:19;16.40;;;2.97;;
71464;SDS011;59274;49.874;9.154;2024-01-25T10:42:45;18.38;;;3.65;;
71464;SDS011;59274;49.874;9.154;2024-01-25T10:45:11;18.85;;;3.15;;
71464;SDS011;59274;49.874;9.154;2024-01-25T10:47:36;19.73;;;3.97;;
71464;SDS011;59274;49.874;9.154;2024-01-25T10:50:03;23.02;;;3.72;;
71464;SDS011;59274;49.874;9.154;2024-01-25T10:52:34;19.55;;;3.88;;
71464;SDS011;59274;49.874;9.154;2024-01-25T10:55:01;21.97;;;3.73;;
71464;SDS011;59274;49.874;9.154;2024-01-25T10:57:35;20.70;;;3.88;;
71464;SDS011;59274;49.874;9.154;2024-01-25T11:00:05;19.05;;;3.33;;
71464;SDS011;59274;49.874;9.154;2024-01-25T11:02:37;25.42;;;3.88;;
71464;SDS011;59274;49.874;9.154;2024-01-25T11:05:10;16.50;;;3.63;;
71464;SDS011;59274;49.874;9.154;2024-01-25T11:07:40;26.67;;;4.53;;
71464;SDS011;59274;49.874;9.154;2024-01-25T11:10:22;19.80;;;3.85;;
71464;SDS011;59274;49.874;9.154;2024-01-25T11:15:23;14.82;;;2.63;;
71464;SDS011;59274;49.874;9.154;2024-01-25T11:17:57;19.85;;;3.13;;
71464;SDS011;59274;49.874;9.154;2024-01-25T11:20:23;19.50;;;3.80;;
71464;SDS011;59274;49.874;9.154;2024-01-25T11:23:01;25.30;;;3.47;;
71464;SDS011;59274;49.874;9.154;2024-01-25T11:25:30;16.52;;;2.95;;
71464;SDS011;59274;49.874;9.154;2024-01-25T11:27:57;22.90;;;3.30;;
71464;SDS011;59274;49.874;9.154;2024-01-25T11:30:24;20.73;;;3.20;;
71464;SDS011;59274;49.874;9.154;2024-01-25T11:32:50;20.07;;;3.23;;
71464;SDS011;59274;49.874;9.154;2024-01-25T11:35:16;13.95;;;2.95;;
71464;SDS011;59274;49.874;9.154;2024-01-25T11:37:48;25.57;;;3.10;;
71464;SDS011;59274;49.874;9.154;2024-01-25T11:40:16;20.15;;;3.35;;
71464;SDS011;59274;49.874;9.154;2024-01-25T11:42:43;17.40;;;3.40;;
71464;SDS011;59274;49.874;9.154;2024-01-25T11:45:10;16.92;;;3.10;;
71464;SDS011;59274;49.874;9.154;2024-01-25T11:47:39;21.85;;;3.38;;
71464;SDS011;59274;49.874;9.154;2024-01-25T11:50:06;17.55;;;3.00;;
71464;SDS011;59274;49.874;9.154;2024-01-25T11:52:33;18.13;;;2.90;;
71464;SDS011;59274;49.874;9.154;2024-01-25T11:55:02;19.33;;;3.42;;
71464;SDS011;59274;49.874;9.154;2024-01-25T11:57:32;20.92;;;3.25;;
71464;SDS011;59274;49.874;9.154;2024-01-25T12:00:12;18.08;;;3.25;;
71464;SDS011;59274;49.874;9.154;2024-01-25T12:02:39;16.97;;;2.47;;
71464;SDS011;59274;49.874;9.154;2024-01-25T12:05:05;18.90;;;3.25;;
71464;SDS011;59274;49.874;9.154;2024-01-25T12:07:32;15.88;;;3.10;;
71464;SDS011;59274;49.874;9.154;2024-01-25T12:12:23;18.77;;;3.33;;
71464;SDS011;59274;49.874;9.154;2024-01-25T12:14:48;20.50;;;3.07;;
71464;SDS011;59274;49.874;9.154;2024-01-25T12:17:14;19.97;;;3.10;;
71464;SDS011;59274;49.874;9.154;2024-01-25T12:19:39;23.03;;;3.50;;
71464;SDS011;59274;49.874;9.154;2024-01-25T12:22:05;14.85;;;3.03;;
71464;SDS011;59274;49.874;9.154;2024-01-25T12:24:30;16.80;;;3.08;;
71464;SDS011;59274;49.874;9.154;2024-01-25T12:26:56;15.73;;;2.57;;
71464;SDS011;59274;49.874;9.154;2024-01-25T12:29:21;19.03;;;2.97;;
71464;SDS011;59274;49.874;9.154;2024-01-25T12:31:47;13.48;;;2.67;;
71464;SDS011;59274;49.874;9.154;2024-01-25T12:34:13;18.13;;;3.10;;
71464;SDS011;59274;49.874;9.154;2024-01-25T12:36:42;17.75;;;3.15;;
71464;SDS011;59274;49.874;9.154;2024-01-25T12:39:08;16.07;;;3.30;;
71464;SDS011;59274;49.874;9.154;2024-01-25T12:41:33;17.63;;;3.55;;
71464;SDS011;59274;49.874;9.154;2024-01-25T12:44:00;18.10;;;3.17;;
71464;SDS011;59274;49.874;9.154;2024-01-25T12:46:25;19.63;;;3.77;;
71464;SDS011;59274;49.874;9.154;2024-01-25T12:48:51;21.63;;;3.47;;
71464;SDS011;59274;49.874;9.154;2024-01-25T12:51:20;16.95;;;3.22;;
71464;SDS011;59274;49.874;9.154;2024-01-25T12:53:46;16.05;;;2.78;;
71464;SDS011;59274;49.874;9.154;2024-01-25T12:56:12;20.90;;;3.50;;
71464;SDS011;59274;49.874;9.154;2024-01-25T12:58:37;15.43;;;2.97;;
71464;SDS011;59274;49.874;9.154;2024-01-25T13:01:02;16.47;;;3.23;;
71464;SDS011;59274;49.874;9.154;2024-01-25T13:03:28;16.38;;;3.42;;
71464;SDS011;59274;49.874;9.154;2024-01-25T13:05:54;16.63;;;2.93;;
71464;SDS011;59274;49.874;9.154;2024-01-25T13:08:19;20.50;;;3.10;;
71464;SDS011;59274;49.874;9.154;2024-01-25T13:10:44;17.73;;;3.43;;
71464;SDS011;59274;49.874;9.154;2024-01-25T13:13:10;14.87;;;3.13;;
71464;SDS011;59274;49.874;9.154;2024-01-25T13:15:35;17.00;;;3.37;;
71464;SDS011;59274;49.874;9.154;2024-01-25T13:18:00;17.15;;;2.72;;
71464;SDS011;59274;49.874;9.154;2024-01-25T13:20:26;19.27;;;3.03;;
71464;SDS011;59274;49.874;9.154;2024-01-25T13:22:51;21.53;;;3.20;;
71464;SDS011;59274;49.874;9.154;2024-01-25T13:25:17;19.97;;;3.50;;
71464;SDS011;59274;49.874;9.154;2024-01-25T13:27:42;17.23;;;3.08;;
71464;SDS011;59274;49.874;9.154;2024-01-25T13:30:08;17.33;;;2.87;;
71464;SDS011;59274;49.874;9.154;2024-01-25T13:32:36;14.82;;;2.95;;
71464;SDS011;59274;49.874;9.154;2024-01-25T13:35:02;14.93;;;2.80;;
71464;SDS011;59274;49.874;9.154;2024-01-25T13:37:28;14.23;;;3.45;;
71464;SDS011;59274;49.874;9.154;2024-01-25T13:39:53;17.80;;;3.53;;
71464;SDS011;59274;49.874;9.154;2024-01-25T13:42:19;20.90;;;4.40;;
71464;SDS011;59274;49.874;9.154;2024-01-25T13:44:44;14.47;;;3.30;;
71464;SDS011;59274;49.874;9.154;2024-01-25T13:47:09;18.35;;;3.35;;
71464;SDS011;59274;49.874;9.154;2024-01-25T13:49:35;16.17;;;3.63;;
71464;SDS011;59274;49.874;9.154;2024-01-25T13:52:01;18.97;;;3.50;;
71464;SDS011;59274;49.874;9.154;2024-01-25T13:54:30;15.27;;;3.55;;
71464;SDS011;59274;49.874;9.154;2024-01-25T13:56:55;16.83;;;3.30;;
71464;SDS011;59274;49.874;9.154;2024-01-25T13:59:21;19.55;;;3.55;;
71464;SDS011;59274;49.874;9.154;2024-01-25T14:01:46;13.07;;;2.90;;
71464;SDS011;59274;49.874;9.154;2024-01-25T14:04:12;14.60;;;2.83;;
71464;SDS011;59274;49.874;9.154;2024-01-25T14:06:38;14.82;;;2.67;;
71464;SDS011;59274;49.874;9.154;2024-01-25T14:09:04;20.20;;;3.53;;
71464;SDS011;59274;49.874;9.154;2024-01-25T14:11:30;10.77;;;2.65;;
71464;SDS011;59274;49.874;9.154;2024-01-25T14:13:56;17.17;;;3.25;;
71464;SDS011;59274;49.874;9.154;2024-01-25T14:16:21;16.27;;;2.60;;
71464;SDS011;59274;49.874;9.154;2024-01-25T14:18:47;14.47;;;2.83;;
71464;SDS011;59274;49.874;9.154;2024-01-25T14:21:12;19.63;;;2.50;;
71464;SDS011;59274;49.874;9.154;2024-01-25T14:23:38;17.80;;;2.78;;
71464;SDS011;59274;49.874;9.154;2024-01-25T14:26:03;19.97;;;3.43;;
71464;SDS011;59274;49.874;9.154;2024-01-25T14:28:29;17.87;;;3.03;;
71464;SDS011;59274;49.874;9.154;2024-01-25T14:30:54;13.48;;;3.00;;